createdAt,value
2022-10-15T00:00:29.309Z,14.63
2022-10-15T00:03:15.010Z,20.95
2022-10-15T00:06:05.100Z,19.25
2022-10-15T00:08:50.513Z,16.48
2022-10-15T00:11:36.281Z,21.02
2022-10-15T00:14:21.940Z,17.88
2022-10-15T00:17:07.728Z,23.27
2022-10-15T00:19:53.130Z,17.63
2022-10-15T00:22:39.203Z,18.30
2022-10-15T00:25:24.599Z,15.63
2022-10-15T00:28:34.419Z,15.98
2022-10-15T00:34:41.501Z,18.15
2022-10-15T00:41:11.612Z,17.73
2022-10-15T00:44:22.149Z,15.10
2022-10-15T00:47:20.448Z,16.75
2022-10-15T00:50:54.343Z,12.77
2022-10-15T00:53:31.146Z,13.15
2022-10-15T00:56:22.780Z,16.52
2022-10-15T00:59:37.676Z,15.45
2022-10-15T01:02:29.263Z,13.68
2022-10-15T01:08:57.243Z,10.90
2022-10-15T01:15:35.714Z,12.25
2022-10-15T01:18:28.338Z,13.75
2022-10-15T01:21:21.832Z,12.30
2022-10-15T01:24:49.713Z,16.33
2022-10-15T01:28:48.302Z,10.90
2022-10-15T01:32:11.918Z,13.15
2022-10-15T01:35:40.899Z,12.80
2022-10-15T01:38:49.851Z,11.23
2022-10-15T01:42:19.734Z,13.77
2022-10-15T01:45:32.095Z,12.38
2022-10-15T01:48:45.306Z,12.52
2022-10-15T01:52:07.922Z,11.30
2022-10-15T01:54:57.022Z,11.50
2022-10-15T01:58:08.472Z,16.30
2022-10-15T02:04:31.988Z,16.45
2022-10-15T02:07:46.029Z,13.88
2022-10-15T02:13:55.394Z,19.17
2022-10-15T02:17:10.680Z,19.92
2022-10-15T02:20:35.504Z,17.23
2022-10-15T02:23:34.196Z,21.90
2022-10-15T02:26:32.799Z,16.40
2022-10-15T02:29:37.013Z,14.25
2022-10-15T02:36:05.739Z,15.75
2022-10-15T02:39:01.351Z,19.85
2022-10-15T02:41:55.769Z,16.33
2022-10-15T02:44:41.374Z,18.00
2022-10-15T02:47:26.646Z,16.90
2022-10-15T02:50:12.092Z,14.40
2022-10-15T02:52:57.524Z,17.63
2022-10-15T02:55:42.873Z,15.20
2022-10-15T02:58:29.322Z,14.98
2022-10-15T03:01:14.870Z,15.70
2022-10-15T03:04:01.757Z,16.98
2022-10-15T03:06:55.121Z,14.98
2022-10-15T03:09:41.265Z,15.23
2022-10-15T03:12:26.840Z,17.90
2022-10-15T03:15:12.674Z,15.10
2022-10-15T03:17:58.158Z,13.95
2022-10-15T03:20:45.995Z,13.57
2022-10-15T03:23:37.811Z,13.15
2022-10-15T03:26:23.224Z,13.52
2022-10-15T03:29:08.675Z,15.13
2022-10-15T03:31:54.315Z,13.90
2022-10-15T03:34:39.757Z,13.15
2022-10-15T03:37:26.466Z,13.30
2022-10-15T03:40:13.701Z,13.88
2022-10-15T03:43:00.026Z,12.30
2022-10-15T03:45:45.412Z,12.50
2022-10-15T03:48:30.952Z,11.77
2022-10-15T03:51:19.964Z,14.57
2022-10-15T03:54:11.839Z,14.52
2022-10-15T03:57:06.426Z,13.00
2022-10-15T03:59:52.228Z,11.18
2022-10-15T04:02:48.254Z,11.90
2022-10-15T04:05:34.770Z,15.43
2022-10-15T04:08:24.021Z,17.02
2022-10-15T04:11:11.948Z,17.27
2022-10-15T04:13:57.260Z,16.08
2022-10-15T04:16:42.710Z,13.52
2022-10-15T04:19:28.277Z,15.77
2022-10-15T04:22:17.861Z,13.85
2022-10-15T04:25:10.131Z,17.67
2022-10-15T04:28:01.509Z,15.05
2022-10-15T04:30:47.092Z,14.30
2022-10-15T04:33:38.094Z,14.57
2022-10-15T04:36:46.590Z,13.15
2022-10-15T04:39:31.675Z,15.75
2022-10-15T04:42:17.308Z,14.32
2022-10-15T04:45:03.734Z,13.35
2022-10-15T04:47:49.221Z,14.75
2022-10-15T04:50:50.928Z,11.68
2022-10-15T04:53:48.723Z,11.15
2022-10-15T04:56:45.796Z,18.05
2022-10-15T04:59:43.724Z,13.73
2022-10-15T05:02:30.348Z,11.15
2022-10-15T05:05:15.739Z,18.35
2022-10-15T05:08:19.887Z,14.52
2022-10-15T05:11:34.653Z,10.55
2022-10-15T05:14:28.689Z,12.15
2022-10-15T05:17:20.054Z,14.00
2022-10-15T05:20:07.463Z,9.88
2022-10-15T05:22:53.332Z,11.18
2022-10-15T05:25:38.830Z,15.73
2022-10-15T05:28:34.271Z,11.52
2022-10-15T05:31:22.767Z,14.43
2022-10-15T05:34:15.798Z,9.77
2022-10-15T05:37:03.234Z,13.30
2022-10-15T05:39:54.379Z,11.38
2022-10-15T05:42:41.973Z,11.27
2022-10-15T05:45:28.145Z,9.82
2022-10-15T05:48:30.523Z,13.98
2022-10-15T05:51:23.880Z,10.48
2022-10-15T05:54:17.550Z,11.40
2022-10-15T05:57:04.601Z,12.52
2022-10-15T05:59:49.998Z,11.68
2022-10-15T06:02:35.636Z,11.50
2022-10-15T06:05:20.947Z,13.77
2022-10-15T06:08:06.418Z,13.27
2022-10-15T06:10:54.076Z,13.68
2022-10-15T06:13:42.625Z,11.68
2022-10-15T06:16:28.215Z,14.65
2022-10-15T06:19:15.183Z,10.50
2022-10-15T06:22:00.582Z,14.77
2022-10-15T06:24:45.934Z,18.52
2022-10-15T06:27:33.657Z,18.92
2022-10-15T06:30:19.619Z,20.52
2022-10-15T06:33:05.158Z,27.02
2022-10-15T06:35:50.712Z,26.80
2022-10-15T06:38:36.596Z,24.90
2022-10-15T06:41:22.200Z,29.45
2022-10-15T06:44:07.341Z,28.30
2022-10-15T06:46:52.868Z,33.45
2022-10-15T06:49:38.426Z,26.35
2022-10-15T06:52:24.980Z,26.17
2022-10-15T06:55:10.390Z,24.55
2022-10-15T06:57:56.939Z,22.30
2022-10-15T07:00:42.283Z,24.40
2022-10-15T07:03:28.017Z,22.25
2022-10-15T07:06:13.259Z,21.60
2022-10-15T07:09:01.238Z,18.73
2022-10-15T07:11:46.777Z,19.20
2022-10-15T07:14:33.053Z,18.77
2022-10-15T07:17:18.881Z,18.00
2022-10-15T07:20:05.003Z,16.60
2022-10-15T07:22:50.373Z,19.73
2022-10-15T07:25:35.936Z,17.92
2022-10-15T07:28:21.438Z,17.10
2022-10-15T07:31:07.741Z,16.13
2022-10-15T07:33:53.172Z,17.95
2022-10-15T07:36:39.410Z,12.88
2022-10-15T07:39:24.614Z,17.15
2022-10-15T07:42:10.262Z,14.27
2022-10-15T07:44:55.595Z,10.43
2022-10-15T07:47:42.099Z,15.80
2022-10-15T07:50:29.367Z,13.23
2022-10-15T07:53:20.527Z,12.07
2022-10-15T07:56:11.719Z,11.50
2022-10-15T07:58:56.837Z,6.55
2022-10-15T08:01:44.161Z,7.50
2022-10-15T08:04:34.570Z,11.35
2022-10-15T08:07:20.271Z,6.68
2022-10-15T08:10:06.446Z,8.43
2022-10-15T08:12:51.690Z,6.07
2022-10-15T08:15:40.301Z,2.60
2022-10-15T08:18:26.921Z,3.47
2022-10-15T08:21:12.623Z,5.43
2022-10-15T08:23:58.265Z,6.05
2022-10-15T08:26:43.949Z,2.03
2022-10-15T08:29:29.180Z,6.22
2022-10-15T08:32:14.818Z,4.93
2022-10-15T08:35:00.232Z,2.88
2022-10-15T08:37:45.717Z,4.00
2022-10-15T08:40:31.629Z,3.83
2022-10-15T08:43:23.104Z,2.67
2022-10-15T08:46:18.727Z,2.60
2022-10-15T08:49:05.463Z,1.85
2022-10-15T08:51:58.896Z,1.73
2022-10-15T08:54:44.134Z,2.78
2022-10-15T08:57:47.136Z,4.18
2022-10-15T09:01:05.883Z,2.55
2022-10-15T09:03:56.060Z,5.65
2022-10-15T09:06:42.556Z,2.10
2022-10-15T09:10:00.920Z,3.33
2022-10-15T09:13:01.299Z,2.00
2022-10-15T09:15:54.176Z,3.58
2022-10-15T09:21:28.388Z,2.13
2022-10-15T09:24:20.914Z,1.42
2022-10-15T09:27:15.518Z,3.40
2022-10-15T09:30:13.460Z,2.63
2022-10-15T09:33:27.044Z,1.77
2022-10-15T09:39:03.343Z,2.88
2022-10-15T09:42:14.042Z,2.50
2022-10-15T09:45:03.969Z,5.95
2022-10-15T09:47:49.156Z,4.60
2022-10-15T09:50:46.597Z,4.57
2022-10-15T09:53:49.937Z,3.45
2022-10-15T09:56:55.946Z,3.95
2022-10-15T09:59:56.701Z,2.90
2022-10-15T10:02:42.133Z,3.17
2022-10-15T10:05:30.776Z,5.25
2022-10-15T10:08:25.125Z,4.68
2022-10-15T10:11:12.869Z,5.28
2022-10-15T10:14:00.066Z,5.05
2022-10-15T10:17:18.585Z,3.10
2022-10-15T10:20:10.126Z,3.47
2022-10-15T10:22:58.277Z,6.28
2022-10-15T10:25:43.754Z,4.80
2022-10-15T10:28:40.476Z,3.55
2022-10-15T10:31:31.079Z,2.78
2022-10-15T10:34:21.144Z,3.42
2022-10-15T10:37:07.781Z,4.55
2022-10-15T10:40:00.428Z,5.72
2022-10-15T10:42:45.708Z,3.78
2022-10-15T10:45:32.121Z,5.38
2022-10-15T10:48:24.498Z,2.00
2022-10-15T10:51:19.736Z,3.00
2022-10-15T10:54:10.541Z,5.78
2022-10-15T10:56:58.536Z,4.80
2022-10-15T10:59:50.522Z,4.80
2022-10-15T11:02:40.640Z,5.80
2022-10-15T11:05:29.009Z,5.28
2022-10-15T11:08:24.316Z,9.65
2022-10-15T11:11:22.601Z,6.53
2022-10-15T11:14:20.860Z,4.68
2022-10-15T11:17:40.841Z,3.05
2022-10-15T11:20:49.853Z,4.32
2022-10-15T11:24:08.605Z,3.47
2022-10-15T11:27:13.045Z,5.32
2022-10-15T11:30:16.362Z,6.28
2022-10-15T11:36:08.886Z,5.32
2022-10-15T11:39:22.375Z,9.20
2022-10-15T11:42:30.632Z,5.68
2022-10-15T11:45:16.274Z,6.07
2022-10-15T11:48:22.107Z,3.33
2022-10-15T11:51:34.084Z,3.67
2022-10-15T11:54:45.728Z,5.75
2022-10-15T11:57:34.112Z,2.63
2022-10-15T12:00:28.233Z,4.20
2022-10-15T12:03:18.305Z,6.65
2022-10-15T12:06:09.605Z,6.35
2022-10-15T12:08:57.584Z,6.93
2022-10-15T12:12:02.165Z,5.60
2022-10-15T12:15:11.987Z,3.42
2022-10-15T12:18:35.998Z,4.68
2022-10-15T12:24:51.553Z,2.38
2022-10-15T12:27:37.573Z,3.58
2022-10-15T12:30:25.482Z,5.43
2022-10-15T12:33:22.994Z,3.92
2022-10-15T12:36:29.289Z,6.43
2022-10-15T12:39:47.594Z,7.45
2022-10-15T12:42:36.966Z,5.68
2022-10-15T12:45:40.438Z,1.90
2022-10-15T12:48:29.550Z,3.30
2022-10-15T12:51:24.074Z,3.45
2022-10-15T12:54:31.170Z,5.28
2022-10-15T12:57:31.598Z,6.97
2022-10-15T13:00:26.383Z,5.85
2022-10-15T13:03:23.354Z,3.55
2022-10-15T13:06:20.540Z,6.35
2022-10-15T13:09:11.975Z,7.75
2022-10-15T13:12:00.192Z,3.55
2022-10-15T13:14:55.181Z,5.93
2022-10-15T13:17:40.560Z,5.78
2022-10-15T13:20:31.902Z,4.53
2022-10-15T13:23:30.163Z,5.40
2022-10-15T13:26:23.756Z,4.90
2022-10-15T13:29:16.211Z,6.85
2022-10-15T13:32:02.074Z,4.15
2022-10-15T13:34:47.456Z,8.98
2022-10-15T13:37:35.864Z,6.57
2022-10-15T13:40:27.255Z,9.48
2022-10-15T13:43:20.860Z,5.03
2022-10-15T13:46:06.538Z,4.00
2022-10-15T13:48:57.342Z,7.10
2022-10-15T13:51:52.883Z,6.90
2022-10-15T13:54:39.341Z,6.47
2022-10-15T13:57:24.717Z,5.38
2022-10-15T14:00:23.495Z,9.68
2022-10-15T14:03:18.251Z,10.05
2022-10-15T14:06:19.812Z,6.50
2022-10-15T14:09:18.378Z,7.70
2022-10-15T14:12:07.927Z,11.60
2022-10-15T14:14:54.611Z,5.78
2022-10-15T14:17:40.398Z,8.90
2022-10-15T14:20:27.585Z,6.85
2022-10-15T14:23:21.969Z,8.00
2022-10-15T14:26:07.562Z,10.82
2022-10-15T14:28:55.897Z,11.57
2022-10-15T14:31:45.802Z,11.38
2022-10-15T14:34:31.057Z,13.40
2022-10-15T14:37:31.826Z,9.82
2022-10-15T14:40:20.390Z,12.35
2022-10-15T14:43:18.054Z,10.77
2022-10-15T14:46:06.917Z,9.68
2022-10-15T14:48:52.518Z,10.60
2022-10-15T14:51:38.298Z,10.43
2022-10-15T14:54:31.164Z,10.65
2022-10-15T14:57:30.480Z,10.35
2022-10-15T15:00:38.875Z,13.40
2022-10-15T15:03:39.191Z,18.48
2022-10-15T15:06:24.869Z,8.65
2022-10-15T15:09:10.263Z,16.45
2022-10-15T15:11:56.113Z,11.70
2022-10-15T15:14:41.357Z,17.25
2022-10-15T15:17:29.352Z,12.45
2022-10-15T15:20:16.083Z,13.13
2022-10-15T15:23:01.855Z,13.35
2022-10-15T15:25:48.278Z,10.90
2022-10-15T15:28:33.969Z,9.48
2022-10-15T15:31:19.519Z,14.15
2022-10-15T15:34:05.218Z,18.25
2022-10-15T15:36:50.252Z,14.75
2022-10-15T15:39:36.321Z,11.80
2022-10-15T15:42:24.250Z,8.25
2022-10-15T15:45:25.807Z,11.35
2022-10-15T15:48:11.443Z,8.05
2022-10-15T15:51:02.583Z,9.00
2022-10-15T15:53:48.935Z,6.50
2022-10-15T15:56:34.972Z,6.90
2022-10-15T15:59:20.736Z,11.15
2022-10-15T16:02:06.327Z,6.55
2022-10-15T16:04:52.019Z,4.00
2022-10-15T16:07:37.754Z,8.55
2022-10-15T16:10:23.544Z,8.63
2022-10-15T16:13:09.023Z,9.18
2022-10-15T16:15:54.928Z,7.93
2022-10-15T16:18:40.593Z,6.32
2022-10-15T16:21:27.124Z,5.97
2022-10-15T16:24:12.446Z,7.95
2022-10-15T16:26:57.945Z,9.90
2022-10-15T16:29:43.417Z,8.30
2022-10-15T16:32:29.068Z,12.07
2022-10-15T16:35:14.747Z,6.68
2022-10-15T16:38:00.739Z,6.93
2022-10-15T16:40:47.597Z,11.25
2022-10-15T16:43:34.299Z,15.35
2022-10-15T16:46:19.994Z,16.00
2022-10-15T16:49:05.347Z,10.43
2022-10-15T16:51:50.926Z,10.73
2022-10-15T16:54:36.839Z,16.20
2022-10-15T16:57:22.515Z,10.82
2022-10-15T17:00:08.668Z,15.32
2022-10-15T17:02:55.110Z,15.05
2022-10-15T17:05:40.428Z,20.25
2022-10-15T17:08:59.421Z,19.50
2022-10-15T17:11:46.983Z,14.40
2022-10-15T17:14:32.601Z,18.85
2022-10-15T17:17:18.472Z,14.10
2022-10-15T17:20:04.086Z,13.85
2022-10-15T17:22:49.395Z,18.17
2022-10-15T17:25:36.083Z,16.27
2022-10-15T17:28:21.375Z,12.05
2022-10-15T17:31:09.378Z,11.48
2022-10-15T17:33:57.763Z,13.20
2022-10-15T17:36:48.494Z,8.63
2022-10-15T17:39:34.107Z,14.85
2022-10-15T17:42:21.598Z,14.70
2022-10-15T17:45:07.235Z,13.07
2022-10-15T17:47:52.820Z,20.35
2022-10-15T17:50:43.043Z,10.68
2022-10-15T17:53:30.735Z,17.50
2022-10-15T17:56:19.676Z,15.35
2022-10-15T17:59:07.547Z,15.15
2022-10-15T18:01:58.432Z,16.95
2022-10-15T18:04:46.774Z,17.70
2022-10-15T18:07:32.212Z,17.45
2022-10-15T18:10:17.965Z,12.70
2022-10-15T18:13:04.679Z,15.15
2022-10-15T18:15:50.608Z,16.70
2022-10-15T18:18:36.109Z,18.67
2022-10-15T18:21:27.414Z,20.02
2022-10-15T18:24:12.622Z,11.98
2022-10-15T18:26:58.156Z,16.63
2022-10-15T18:29:44.265Z,9.90
2022-10-15T18:32:29.715Z,8.85
2022-10-15T18:35:15.308Z,9.75
2022-10-15T18:38:00.653Z,8.80
2022-10-15T18:40:46.698Z,8.52
2022-10-15T18:43:32.363Z,8.55
2022-10-15T18:46:17.962Z,10.63
2022-10-15T18:49:03.689Z,11.52
2022-10-15T18:51:53.054Z,10.43
2022-10-15T18:54:38.990Z,10.77
2022-10-15T18:57:24.291Z,14.13
2022-10-15T19:00:11.541Z,8.38
2022-10-15T19:02:57.740Z,7.85
2022-10-15T19:05:43.388Z,12.02
2022-10-15T19:08:31.037Z,13.93
2022-10-15T19:11:17.108Z,12.43
2022-10-15T19:14:03.164Z,17.10
2022-10-15T19:16:49.047Z,10.90
2022-10-15T19:19:34.279Z,9.35
2022-10-15T19:22:19.650Z,7.45
2022-10-15T19:25:06.529Z,17.35
2022-10-15T19:27:51.678Z,14.48
2022-10-15T19:30:38.113Z,13.70
2022-10-15T19:33:25.705Z,12.27
2022-10-15T19:36:10.850Z,10.02
2022-10-15T19:38:56.969Z,12.75
2022-10-15T19:41:43.801Z,11.15
2022-10-15T19:44:29.257Z,12.05
2022-10-15T19:47:19.320Z,6.75
2022-10-15T19:50:04.997Z,11.57
2022-10-15T19:52:50.743Z,10.30
2022-10-15T19:55:36.054Z,13.73
2022-10-15T19:58:21.462Z,13.38
2022-10-15T20:01:06.631Z,15.50
2022-10-15T20:03:52.756Z,11.60
2022-10-15T20:06:38.863Z,18.08
2022-10-15T20:09:24.509Z,12.70
2022-10-15T20:12:10.675Z,14.18
2022-10-15T20:14:56.006Z,16.90
2022-10-15T20:17:41.561Z,12.32
2022-10-15T20:20:27.783Z,13.32
2022-10-15T20:23:17.682Z,13.85
2022-10-15T20:26:08.299Z,16.02
2022-10-15T20:28:53.940Z,21.10
2022-10-15T20:31:39.678Z,15.02
2022-10-15T20:34:25.130Z,16.08
2022-10-15T20:37:12.909Z,12.65
2022-10-15T20:39:59.970Z,19.52
2022-10-15T20:42:46.163Z,18.90
2022-10-15T20:45:36.940Z,18.70
2022-10-15T20:48:25.466Z,17.60
2022-10-15T20:51:14.600Z,15.63
2022-10-15T20:54:00.036Z,16.40
2022-10-15T20:56:45.889Z,17.42
2022-10-15T20:59:31.386Z,13.50
2022-10-15T21:02:17.059Z,21.23
2022-10-15T21:05:02.673Z,18.52
2022-10-15T21:07:48.252Z,15.88
2022-10-15T21:10:33.850Z,17.92
2022-10-15T21:13:19.317Z,16.92
2022-10-15T21:16:06.702Z,19.05
2022-10-15T21:18:52.145Z,18.98
2022-10-15T21:21:37.699Z,22.25
2022-10-15T21:24:27.871Z,20.02
2022-10-15T21:27:13.624Z,15.68
2022-10-15T21:29:59.300Z,24.30
2022-10-15T21:32:44.613Z,18.88
2022-10-15T21:35:30.204Z,15.85
2022-10-15T21:38:15.726Z,24.30
2022-10-15T21:41:01.251Z,23.63
2022-10-15T21:43:46.793Z,23.45
2022-10-15T21:46:32.580Z,12.88
2022-10-15T21:49:17.999Z,20.10
2022-10-15T21:52:03.901Z,21.00
2022-10-15T21:54:49.461Z,17.35
2022-10-15T21:57:34.984Z,19.65
2022-10-15T22:00:20.416Z,25.63
2022-10-15T22:03:06.149Z,17.23
2022-10-15T22:05:51.564Z,19.92
2022-10-15T22:08:37.888Z,22.15
2022-10-15T22:11:28.829Z,18.08
2022-10-15T22:14:14.391Z,18.48
2022-10-15T22:16:59.977Z,17.50
2022-10-15T22:19:45.391Z,20.80
2022-10-15T22:22:30.947Z,18.35
2022-10-15T22:25:16.689Z,19.63
2022-10-15T22:28:02.087Z,31.60
2022-10-15T22:30:47.591Z,22.73
2022-10-15T22:33:34.356Z,14.82
2022-10-15T22:36:24.754Z,21.80
2022-10-15T22:39:13.242Z,23.48
2022-10-15T22:41:58.908Z,17.48
2022-10-15T22:44:44.565Z,17.85
2022-10-15T22:47:29.964Z,20.45
2022-10-15T22:50:16.327Z,18.88
2022-10-15T22:53:01.570Z,16.25
2022-10-15T22:55:55.825Z,20.63
2022-10-15T22:58:42.172Z,18.00
2022-10-15T23:01:32.898Z,14.18
2022-10-15T23:04:18.274Z,18.38
2022-10-15T23:07:03.298Z,27.67
2022-10-15T23:09:48.875Z,17.95
2022-10-15T23:12:37.385Z,24.88
2022-10-15T23:15:22.881Z,18.27
2022-10-15T23:18:08.676Z,18.95
2022-10-15T23:20:54.774Z,18.00
2022-10-15T23:23:40.170Z,24.23
2022-10-15T23:26:25.587Z,16.40
2022-10-15T23:29:19.404Z,20.08
2022-10-15T23:32:04.917Z,16.60
2022-10-15T23:34:50.614Z,23.05
2022-10-15T23:37:40.620Z,14.88
2022-10-15T23:40:45.302Z,15.25
2022-10-15T23:43:53.285Z,24.25
2022-10-15T23:46:50.017Z,21.83
2022-10-15T23:49:35.527Z,22.70
2022-10-15T23:52:20.992Z,20.40
2022-10-15T23:55:06.773Z,27.05
2022-10-15T23:57:52.004Z,20.45
